ROMMA est une association bénévole à but non lucratif. Votre soutien est indispensable : ADHERER à ROMMA ou FAIRE un DON

Chambon - (38, Isère)

Oisans (2460 m)   Longitude: 06° 10' 42" E   Latitude: 45° 01' 32" N Station partenaire n°803
 

Détail journalier du     <<     >>

Température Humidité Vent Dir Rafale Dir. rafale Neige 1 Neige 2
Heure (°C) (%) (km/h) (km/h) (cm) (cm)
01:00 -1.210010S44S170221
02:00 0.008S44S00
03:00 -2.210017S47S179228
04:00 -3.29917S45O178229
05:00 -4.19921O41O179229
06:00 0.009OSO28OSO00
07:00 -5.89815SO28SO193240
08:00 -6.29722SO49SO198240
09:00 -5.89723SO49SO194240
10:00 0.0010OSO29OSO00
11:00 -3.69313SSO25SO193240
12:00 -4.39217SSO29OSO192240
13:00 -2.79319SO29OSO192240
14:00 0.009SO22SO00
15:00 -5.29716O29O192240
16:00 -3.59414SO29O194240
17:00 -4.19510SO24SO193240
18:00 0.004SO13SO00
19:00 -3.09510SO18SO193240
20:00 -5.0989SO18SO192240
21:00 -5.2989SO19SO194240
22:00 0.005SO19SO00
23:00 -5.6984SO14SO194240
minuit -5.3982ENE11ENE194240

Graphique du 26-04-2019

 

Serveur OMMA